createdAt,value
2017-05-18T00:00:26.432Z,999.36
2017-05-18T00:01:06.964Z,999.39
2017-05-18T00:01:47.495Z,999.35
2017-05-18T00:02:28.025Z,999.35
2017-05-18T00:03:08.553Z,999.37
2017-05-18T00:03:49.075Z,999.37
2017-05-18T00:04:29.612Z,999.33
2017-05-18T00:05:10.142Z,999.35
2017-05-18T00:05:50.677Z,999.34
2017-05-18T00:06:31.202Z,999.3
2017-05-18T00:07:11.732Z,999.31
2017-05-18T00:07:52.299Z,999.29
2017-05-18T00:08:32.811Z,999.29
2017-05-18T00:09:13.329Z,999.3
2017-05-18T00:09:53.849Z,999.32
2017-05-18T00:10:34.368Z,999.25
2017-05-18T00:11:14.887Z,999.26
2017-05-18T00:11:55.414Z,999.25
2017-05-18T00:12:35.945Z,999.29
2017-05-18T00:13:16.465Z,999.24
2017-05-18T00:13:57.002Z,999.24
2017-05-18T00:14:37.523Z,999.25
2017-05-18T00:15:18.054Z,999.25
2017-05-18T00:15:58.571Z,999.26
2017-05-18T00:16:39.092Z,999.25
2017-05-18T00:17:19.619Z,999.29
2017-05-18T00:18:00.150Z,999.31
2017-05-18T00:18:40.686Z,999.26
2017-05-18T00:19:21.205Z,999.34
2017-05-18T00:20:01.735Z,999.32
2017-05-18T00:20:42.250Z,999.32
2017-05-18T00:21:22.780Z,999.34
2017-05-18T00:22:03.332Z,999.38
2017-05-18T00:22:43.854Z,999.33
2017-05-18T00:23:24.385Z,999.33
2017-05-18T00:24:04.919Z,999.38
2017-05-18T00:24:45.436Z,999.36
2017-05-18T00:25:25.961Z,999.35
2017-05-18T00:26:06.477Z,999.33
2017-05-18T00:26:47.011Z,999.37
2017-05-18T00:27:27.538Z,999.35
2017-05-18T00:28:08.059Z,999.32
2017-05-18T00:28:48.574Z,999.36
2017-05-18T00:29:29.099Z,999.34
2017-05-18T00:30:09.623Z,999.36
2017-05-18T00:30:50.143Z,999.32
2017-05-18T00:31:30.658Z,999.32
2017-05-18T00:32:11.188Z,999.34
2017-05-18T00:32:51.718Z,999.3
2017-05-18T00:33:32.246Z,999.3
2017-05-18T00:34:12.778Z,999.28
2017-05-18T00:34:53.298Z,999.3
2017-05-18T00:35:33.826Z,999.32
2017-05-18T00:36:14.391Z,999.32
2017-05-18T00:36:54.871Z,999.26
2017-05-18T00:37:35.397Z,999.26
2017-05-18T00:38:15.923Z,999.27
2017-05-18T00:38:56.444Z,999.27
2017-05-18T00:39:36.972Z,999.29
2017-05-18T00:40:17.489Z,999.28
2017-05-18T00:40:58.008Z,999.27
2017-05-18T00:41:38.543Z,999.27
2017-05-18T00:42:19.068Z,999.29
2017-05-18T00:42:59.598Z,999.27
2017-05-18T00:43:40.137Z,999.24
2017-05-18T00:44:20.654Z,999.22
2017-05-18T00:45:01.186Z,999.21
2017-05-18T00:45:41.704Z,999.22
2017-05-18T00:46:22.234Z,999.19
2017-05-18T00:47:02.774Z,999.21
2017-05-18T00:47:43.296Z,999.2
2017-05-18T00:48:23.815Z,999.21
2017-05-18T00:49:04.338Z,999.18
2017-05-18T00:49:44.857Z,999.19
2017-05-18T00:50:25.377Z,999.2
2017-05-18T00:51:05.901Z,999.2
2017-05-18T00:51:46.424Z,999.19
2017-05-18T00:52:26.948Z,999.24
2017-05-18T00:53:07.459Z,999.23
2017-05-18T00:53:47.989Z,999.2
2017-05-18T00:54:28.520Z,999.22
2017-05-18T00:55:09.050Z,999.26
2017-05-18T00:55:49.573Z,999.24
2017-05-18T00:56:30.092Z,999.28
2017-05-18T00:57:10.614Z,999.28
2017-05-18T00:57:51.146Z,999.32
2017-05-18T00:58:31.672Z,999.33
2017-05-18T00:59:12.193Z,999.34
2017-05-18T00:59:52.716Z,999.33
2017-05-18T01:00:33.234Z,999.32
2017-05-18T01:01:13.777Z,999.33
2017-05-18T01:01:54.291Z,999.34
2017-05-18T01:02:34.810Z,999.34
2017-05-18T01:03:15.331Z,999.3
2017-05-18T01:03:55.856Z,999.3
2017-05-18T01:04:36.384Z,999.32
2017-05-18T01:05:16.908Z,999.36
2017-05-18T01:05:57.428Z,999.35
2017-05-18T01:06:37.954Z,999.38
2017-05-18T01:07:18.463Z,999.37
2017-05-18T01:07:58.984Z,999.41
2017-05-18T01:08:39.512Z,999.4
2017-05-18T01:09:20.047Z,999.41
2017-05-18T01:10:00.569Z,999.37
2017-05-18T01:10:41.089Z,999.4
2017-05-18T01:11:21.627Z,999.4
2017-05-18T01:12:02.149Z,999.37
2017-05-18T01:12:42.675Z,999.37
2017-05-18T01:13:23.197Z,999.38
2017-05-18T01:14:03.718Z,999.37
2017-05-18T01:14:44.243Z,999.38
2017-05-18T01:15:24.761Z,999.39
2017-05-18T01:16:05.297Z,999.38
2017-05-18T01:16:45.835Z,999.36
2017-05-18T01:17:26.362Z,999.34
2017-05-18T01:18:06.876Z,999.36
2017-05-18T01:18:47.398Z,999.35
2017-05-18T01:19:27.920Z,999.43
2017-05-18T01:20:08.447Z,999.44
2017-05-18T01:20:48.977Z,999.42
2017-05-18T01:21:29.503Z,999.39
2017-05-18T01:22:10.026Z,999.41
2017-05-18T01:22:50.550Z,999.4
2017-05-18T01:23:31.071Z,999.42
2017-05-18T01:24:11.597Z,999.39
2017-05-18T01:24:52.130Z,999.42
2017-05-18T01:25:32.647Z,999.44
2017-05-18T01:26:13.165Z,999.47
2017-05-18T01:26:53.690Z,999.44
2017-05-18T01:27:34.212Z,999.44
2017-05-18T01:28:14.747Z,999.44
2017-05-18T01:28:55.280Z,999.45
2017-05-18T01:29:35.798Z,999.42
2017-05-18T01:30:16.343Z,999.42
2017-05-18T01:30:56.860Z,999.41
2017-05-18T01:31:37.396Z,999.41
2017-05-18T01:32:17.908Z,999.41
2017-05-18T01:32:58.424Z,999.38
2017-05-18T01:33:38.950Z,999.36
2017-05-18T01:34:19.486Z,999.32
2017-05-18T01:35:00.002Z,999.36
2017-05-18T01:35:40.518Z,999.35
2017-05-18T01:36:21.050Z,999.34
2017-05-18T01:37:01.574Z,999.32
2017-05-18T01:37:42.098Z,999.33
2017-05-18T01:38:22.620Z,999.32
2017-05-18T01:39:03.161Z,999.3
2017-05-18T01:39:43.664Z,999.35
2017-05-18T01:40:24.187Z,999.37
2017-05-18T01:41:04.722Z,999.34
2017-05-18T01:41:45.257Z,999.39
2017-05-18T01:42:25.781Z,999.33
2017-05-18T01:43:06.300Z,999.37
2017-05-18T01:43:46.832Z,999.37
2017-05-18T01:44:27.359Z,999.36
2017-05-18T01:45:07.875Z,999.35
2017-05-18T01:45:48.391Z,999.36
2017-05-18T01:46:28.933Z,999.33
2017-05-18T01:47:09.487Z,999.37
2017-05-18T01:47:50.004Z,999.35
2017-05-18T01:48:30.523Z,999.34
2017-05-18T01:49:11.125Z,999.35
2017-05-18T01:51:04.221Z,999.3
2017-05-18T01:51:44.736Z,999.29
2017-05-18T01:52:25.258Z,999.32
2017-05-18T01:53:05.785Z,999.32
2017-05-18T01:53:46.305Z,999.3
2017-05-18T01:54:26.828Z,999.33
2017-05-18T01:55:07.342Z,999.31
2017-05-18T01:55:47.863Z,999.27
2017-05-18T01:56:28.393Z,999.32
2017-05-18T01:57:08.921Z,999.26
2017-05-18T01:57:49.434Z,999.27
2017-05-18T01:58:29.954Z,999.32
2017-05-18T01:59:10.484Z,999.33
2017-05-18T01:59:51.055Z,999.27
2017-05-18T02:00:31.528Z,999.29
2017-05-18T02:01:12.039Z,999.27
2017-05-18T02:01:52.561Z,999.26
2017-05-18T02:02:33.077Z,999.27
2017-05-18T02:03:13.594Z,999.28
2017-05-18T02:03:54.114Z,999.29
2017-05-18T02:04:34.630Z,999.29
2017-05-18T02:05:15.151Z,999.24
2017-05-18T02:05:55.676Z,999.22
2017-05-18T02:06:36.183Z,999.25
2017-05-18T02:07:16.701Z,999.26
2017-05-18T02:07:57.216Z,999.29
2017-05-18T02:08:37.736Z,999.28
2017-05-18T02:09:18.270Z,999.26
2017-05-18T02:09:58.785Z,999.28
2017-05-18T02:10:39.306Z,999.26
2017-05-18T02:11:19.832Z,999.28
2017-05-18T02:12:00.343Z,999.28
2017-05-18T02:12:40.868Z,999.28
2017-05-18T02:13:21.392Z,999.24
2017-05-18T02:14:01.924Z,999.28
2017-05-18T02:14:42.518Z,999.25
2017-05-18T02:15:23.036Z,999.24
2017-05-18T02:16:03.555Z,999.27
2017-05-18T02:16:44.081Z,999.31
2017-05-18T02:17:24.600Z,999.3
2017-05-18T02:18:05.125Z,999.29
2017-05-18T02:18:45.640Z,999.32
2017-05-18T02:19:26.155Z,999.3
2017-05-18T02:20:06.668Z,999.32
2017-05-18T02:20:47.189Z,999.28
2017-05-18T02:21:27.719Z,999.28
2017-05-18T02:22:08.250Z,999.3
2017-05-18T02:22:48.761Z,999.26
2017-05-18T02:23:29.281Z,999.25
2017-05-18T02:24:09.798Z,999.27
2017-05-18T02:24:50.321Z,999.23
2017-05-18T02:25:30.853Z,999.24
2017-05-18T02:26:11.368Z,999.24
2017-05-18T02:26:51.874Z,999.23
2017-05-18T02:27:32.417Z,999.22
2017-05-18T02:28:12.938Z,999.16
2017-05-18T02:28:53.509Z,999.19
2017-05-18T02:29:33.987Z,999.19
2017-05-18T02:30:14.518Z,999.16
2017-05-18T02:30:55.041Z,999.19
2017-05-18T02:31:35.571Z,999.17
2017-05-18T02:32:16.088Z,999.18
2017-05-18T02:32:56.612Z,999.16
2017-05-18T02:33:37.136Z,999.19
2017-05-18T02:34:17.669Z,999.15
2017-05-18T02:34:58.201Z,999.16
2017-05-18T02:35:38.715Z,999.17
2017-05-18T02:36:19.228Z,999.13
2017-05-18T02:36:59.747Z,999.15
2017-05-18T02:37:40.268Z,999.18
2017-05-18T02:38:20.784Z,999.12
2017-05-18T02:39:01.312Z,999.15
2017-05-18T02:39:41.840Z,999.11
2017-05-18T02:40:22.367Z,999.1
2017-05-18T02:41:02.889Z,999.1
2017-05-18T02:41:43.418Z,999.09
2017-05-18T02:42:23.930Z,999.11
2017-05-18T02:43:04.455Z,999.12
2017-05-18T02:43:44.972Z,999.11
2017-05-18T02:44:25.487Z,999.09
2017-05-18T02:45:06.017Z,999.09
2017-05-18T02:45:46.533Z,999.13
2017-05-18T02:46:27.051Z,999.15
2017-05-18T02:47:07.572Z,999.2
2017-05-18T02:47:48.093Z,999.15
2017-05-18T02:48:28.612Z,999.18
2017-05-18T02:49:09.135Z,999.19
2017-05-18T02:49:49.654Z,999.15
2017-05-18T02:50:30.180Z,999.15
2017-05-18T02:51:10.703Z,999.21
2017-05-18T02:51:51.223Z,999.18
2017-05-18T02:52:31.741Z,999.23
2017-05-18T02:53:12.258Z,999.22
2017-05-18T02:53:52.786Z,999.28
2017-05-18T02:54:33.311Z,999.31
2017-05-18T02:55:13.831Z,999.23
2017-05-18T02:55:54.349Z,999.28
2017-05-18T02:56:34.868Z,999.32
2017-05-18T02:57:15.394Z,999.3
2017-05-18T02:57:55.919Z,999.31
2017-05-18T02:58:36.439Z,999.33
2017-05-18T02:59:16.962Z,999.28
2017-05-18T02:59:57.480Z,999.28
2017-05-18T03:00:37.996Z,999.32
2017-05-18T03:01:18.525Z,999.3
2017-05-18T03:01:59.061Z,999.28
2017-05-18T03:02:39.579Z,999.32
2017-05-18T03:03:20.106Z,999.29
2017-05-18T03:04:00.641Z,999.29
2017-05-18T03:04:41.160Z,999.34
2017-05-18T03:05:21.679Z,999.34
2017-05-18T03:06:02.220Z,999.33
2017-05-18T03:06:42.741Z,999.31
2017-05-18T03:07:23.262Z,999.34
2017-05-18T03:08:03.781Z,999.35
2017-05-18T03:08:44.314Z,999.32
2017-05-18T03:09:24.829Z,999.36
2017-05-18T03:10:05.352Z,999.34
2017-05-18T03:10:45.879Z,999.35
2017-05-18T03:11:26.409Z,999.36
2017-05-18T03:12:06.928Z,999.38
2017-05-18T03:12:47.462Z,999.36
2017-05-18T03:13:27.989Z,999.36
2017-05-18T03:14:08.502Z,999.4
2017-05-18T03:14:49.050Z,999.38
2017-05-18T03:15:29.587Z,999.34
2017-05-18T03:16:10.109Z,999.32
2017-05-18T03:16:50.644Z,999.44
2017-05-18T03:17:31.161Z,999.44
2017-05-18T03:18:11.685Z,999.46
2017-05-18T03:18:52.204Z,999.38
2017-05-18T03:19:32.756Z,999.36
2017-05-18T03:20:13.269Z,999.41
2017-05-18T03:20:53.794Z,999.38
2017-05-18T03:21:34.314Z,999.34
2017-05-18T03:22:14.835Z,999.4
2017-05-18T03:22:55.356Z,999.36
2017-05-18T03:23:35.876Z,999.41
2017-05-18T03:24:16.395Z,999.42
2017-05-18T03:24:56.923Z,999.37
2017-05-18T03:25:37.439Z,999.38
2017-05-18T03:26:17.968Z,999.42
2017-05-18T03:26:58.481Z,999.37
2017-05-18T03:27:39.001Z,999.36
2017-05-18T03:28:19.522Z,999.36
2017-05-18T03:29:00.045Z,999.35
2017-05-18T03:29:40.567Z,999.38
2017-05-18T03:30:21.097Z,999.41
2017-05-18T03:31:01.617Z,999.42
2017-05-18T03:31:42.134Z,999.35
2017-05-18T03:32:22.657Z,999.4
2017-05-18T03:33:03.242Z,999.31
2017-05-18T03:33:43.698Z,999.35
2017-05-18T03:34:24.219Z,999.32
2017-05-18T03:35:04.741Z,999.32
2017-05-18T03:35:45.255Z,999.31
2017-05-18T03:36:25.782Z,999.31
2017-05-18T03:37:06.293Z,999.23
2017-05-18T03:37:46.817Z,999.28
2017-05-18T03:38:27.339Z,999.29
2017-05-18T03:39:07.860Z,999.3
2017-05-18T03:39:48.378Z,999.31
2017-05-18T03:40:28.901Z,999.31
2017-05-18T03:41:09.412Z,999.34
2017-05-18T03:41:49.927Z,999.36
2017-05-18T03:42:30.436Z,999.36
2017-05-18T03:43:10.964Z,999.39
2017-05-18T03:43:51.494Z,999.37
2017-05-18T03:44:32.019Z,999.39
2017-05-18T03:45:12.539Z,999.42
2017-05-18T03:45:53.060Z,999.4
2017-05-18T03:46:33.569Z,999.35
2017-05-18T03:47:14.083Z,999.4
2017-05-18T03:47:54.602Z,999.38
2017-05-18T03:48:35.128Z,999.4
2017-05-18T03:49:15.652Z,999.41
2017-05-18T03:49:56.185Z,999.37
2017-05-18T03:50:36.708Z,999.42
2017-05-18T03:51:17.237Z,999.4
2017-05-18T03:51:57.756Z,999.42
2017-05-18T03:52:38.269Z,999.39
2017-05-18T03:53:18.789Z,999.4
2017-05-18T03:53:59.326Z,999.42
2017-05-18T03:54:39.842Z,999.4
2017-05-18T03:55:20.364Z,999.43
2017-05-18T03:56:00.884Z,999.44
2017-05-18T03:56:41.399Z,999.5
2017-05-18T03:57:21.927Z,999.44
2017-05-18T03:58:02.452Z,999.43
2017-05-18T03:58:42.967Z,999.48
2017-05-18T03:59:23.485Z,999.46
2017-05-18T04:00:04.006Z,999.44
2017-05-18T04:00:44.530Z,999.47
2017-05-18T04:01:25.040Z,999.45
2017-05-18T04:02:05.559Z,999.47
2017-05-18T04:02:46.078Z,999.48
2017-05-18T04:03:26.606Z,999.55
2017-05-18T04:04:07.127Z,999.56
2017-05-18T04:04:47.649Z,999.53
2017-05-18T04:05:28.180Z,999.54
2017-05-18T04:06:08.699Z,999.52
2017-05-18T04:06:49.217Z,999.49
2017-05-18T04:07:29.736Z,999.48
2017-05-18T04:08:10.250Z,999.52
2017-05-18T04:08:50.765Z,999.5
2017-05-18T04:09:31.285Z,999.54
2017-05-18T04:10:11.804Z,999.6
2017-05-18T04:10:52.318Z,999.63
2017-05-18T04:11:33.011Z,999.6
2017-05-18T04:12:13.641Z,999.6
2017-05-18T04:12:54.271Z,999.6
2017-05-18T04:13:34.820Z,999.62
2017-05-18T04:14:15.344Z,999.64
2017-05-18T04:14:55.860Z,999.64
2017-05-18T04:15:36.381Z,999.69
2017-05-18T04:16:17.006Z,999.67
2017-05-18T04:16:57.533Z,999.66
2017-05-18T04:17:38.061Z,999.63
2017-05-18T04:18:18.566Z,999.63
2017-05-18T04:18:59.104Z,999.64
2017-05-18T04:19:39.648Z,999.66
2017-05-18T04:20:20.158Z,999.66
2017-05-18T04:21:00.678Z,999.63
2017-05-18T04:21:41.199Z,999.67
2017-05-18T04:22:21.721Z,999.64
2017-05-18T04:23:02.247Z,999.66
2017-05-18T04:23:42.783Z,999.69
2017-05-18T04:24:23.309Z,999.71
2017-05-18T04:25:03.831Z,999.71
2017-05-18T04:25:44.354Z,999.77
2017-05-18T04:26:24.878Z,999.74
2017-05-18T04:27:05.393Z,999.75
2017-05-18T04:27:45.910Z,999.76
2017-05-18T04:28:26.437Z,999.75
2017-05-18T04:29:06.963Z,999.73
2017-05-18T04:29:47.493Z,999.73
2017-05-18T04:30:28.016Z,999.76
2017-05-18T04:31:08.535Z,999.72
2017-05-18T04:31:49.062Z,999.77
2017-05-18T04:32:29.592Z,999.75
2017-05-18T04:33:10.120Z,999.77
2017-05-18T04:33:50.687Z,999.81
2017-05-18T04:34:31.175Z,999.79
2017-05-18T04:35:11.696Z,999.83
2017-05-18T04:35:52.215Z,999.8
2017-05-18T04:36:32.739Z,999.81
2017-05-18T04:37:13.254Z,999.77
2017-05-18T04:37:53.760Z,999.82
2017-05-18T04:38:34.299Z,999.88
2017-05-18T04:39:14.830Z,999.81
2017-05-18T04:39:55.355Z,999.91
2017-05-18T04:40:36.202Z,999.87
2017-05-18T04:41:16.964Z,999.84
2017-05-18T04:41:57.486Z,999.91
2017-05-18T04:42:38.030Z,999.91
2017-05-18T04:43:18.552Z,999.97
2017-05-18T04:43:59.076Z,1000
2017-05-18T04:44:39.623Z,1000.01
2017-05-18T04:45:20.144Z,999.98
2017-05-18T04:46:00.681Z,999.96
2017-05-18T04:46:41.213Z,999.97
2017-05-18T04:47:21.740Z,999.97
2017-05-18T04:48:02.282Z,999.95
2017-05-18T04:48:43.032Z,999.96
2017-05-18T04:49:23.562Z,999.97
2017-05-18T04:50:04.083Z,1000.01
2017-05-18T04:50:44.612Z,999.98
2017-05-18T04:51:25.116Z,999.97
2017-05-18T04:52:05.643Z,999.97
2017-05-18T04:52:46.174Z,1000.01
2017-05-18T04:53:26.692Z,1000.03
2017-05-18T04:54:07.209Z,1000.01
2017-05-18T04:54:47.739Z,1000.01
2017-05-18T04:55:28.259Z,1000.01
2017-05-18T04:56:08.794Z,1000.08
2017-05-18T04:56:49.321Z,1000.01
2017-05-18T04:57:29.852Z,1000.04
2017-05-18T04:58:10.369Z,1000.03
2017-05-18T04:58:50.904Z,1000.07
2017-05-18T04:59:31.430Z,1000.06
2017-05-18T05:00:11.956Z,1000.12
2017-05-18T05:00:52.480Z,1000.1
2017-05-18T05:01:33.051Z,1000.08
2017-05-18T05:02:13.524Z,1000.11
2017-05-18T05:02:54.046Z,1000.11
2017-05-18T05:03:34.575Z,1000.1
2017-05-18T05:04:15.109Z,1000.09
2017-05-18T05:04:55.626Z,1000.04
2017-05-18T05:05:36.171Z,1000.04
2017-05-18T05:06:16.724Z,1000.06
2017-05-18T05:06:57.241Z,1000.06
2017-05-18T05:07:37.761Z,1000.07
2017-05-18T05:08:18.298Z,1000.08
2017-05-18T05:08:59.771Z,1000.05
2017-05-18T05:09:39.801Z,1000.05
2017-05-18T05:10:20.337Z,1000.11
2017-05-18T05:11:00.858Z,1000.07
2017-05-18T05:11:41.445Z,1000.09
2017-05-18T05:12:21.909Z,1000.04
2017-05-18T05:13:02.444Z,1000.07
2017-05-18T05:13:43.241Z,1000.1
2017-05-18T05:14:23.766Z,1000.11
2017-05-18T05:15:04.292Z,1000.13
2017-05-18T05:15:44.819Z,1000.15
2017-05-18T05:16:25.342Z,1000.07
2017-05-18T05:17:05.864Z,1000.13
2017-05-18T05:17:46.383Z,1000.19
2017-05-18T05:18:26.900Z,1000.19
2017-05-18T05:19:07.509Z,1000.2
2017-05-18T05:19:47.935Z,1000.23
2017-05-18T05:20:28.478Z,1000.24
2017-05-18T05:21:08.994Z,1000.3
2017-05-18T05:21:49.519Z,1000.27
2017-05-18T05:22:30.058Z,1000.29
2017-05-18T05:23:10.579Z,1000.29
2017-05-18T05:23:51.099Z,1000.36
2017-05-18T05:24:31.622Z,1000.33
2017-05-18T05:25:12.162Z,1000.34
2017-05-18T05:25:52.679Z,1000.36
2017-05-18T05:26:33.205Z,1000.37
2017-05-18T05:27:13.737Z,1000.37
2017-05-18T05:27:54.246Z,1000.37
2017-05-18T05:28:34.775Z,1000.4
2017-05-18T05:29:15.313Z,1000.4
2017-05-18T05:29:55.844Z,1000.45
2017-05-18T05:30:36.402Z,1000.45
2017-05-18T05:31:16.953Z,1000.47
2017-05-18T05:31:57.481Z,1000.47
2017-05-18T05:32:38.000Z,1000.46
2017-05-18T05:33:18.534Z,1000.47
2017-05-18T05:33:59.067Z,1000.45
2017-05-18T05:34:39.597Z,1000.47
2017-05-18T05:35:20.119Z,1000.44
2017-05-18T05:36:00.645Z,1000.46
2017-05-18T05:36:41.189Z,1000.47
2017-05-18T05:37:21.715Z,1000.46
2017-05-18T05:38:02.236Z,1000.44
2017-05-18T05:38:42.764Z,1000.4
2017-05-18T05:39:23.290Z,1000.43
2017-05-18T05:40:03.810Z,1000.4
2017-05-18T05:40:44.329Z,1000.38
2017-05-18T05:41:24.872Z,1000.44
2017-05-18T05:42:05.394Z,1000.46
2017-05-18T05:42:46.326Z,1000.4
2017-05-18T05:43:27.304Z,1000.39
2017-05-18T05:44:07.835Z,1000.43
2017-05-18T05:44:48.368Z,1000.45
2017-05-18T05:45:28.910Z,1000.46
2017-05-18T05:46:09.445Z,1000.43
2017-05-18T05:46:49.962Z,1000.41
2017-05-18T05:47:30.499Z,1000.39
2017-05-18T05:48:11.036Z,1000.43
2017-05-18T05:48:51.541Z,1000.44
2017-05-18T05:49:32.053Z,1000.42
2017-05-18T05:50:12.575Z,1000.46
2017-05-18T05:50:53.104Z,1000.41
2017-05-18T05:51:33.632Z,1000.42
2017-05-18T05:52:14.148Z,1000.4
2017-05-18T05:52:54.675Z,1000.39
2017-05-18T05:53:35.199Z,1000.39
2017-05-18T05:54:15.748Z,1000.4
2017-05-18T05:54:56.254Z,1000.38
2017-05-18T05:55:36.768Z,1000.44
2017-05-18T05:56:17.308Z,1000.4
2017-05-18T05:56:57.806Z,1000.43
2017-05-18T05:57:38.308Z,1000.42
2017-05-18T05:58:18.815Z,1000.42
2017-05-18T05:58:59.333Z,1000.41
2017-05-18T05:59:39.859Z,1000.4
2017-05-18T06:00:20.368Z,1000.41
2017-05-18T06:01:00.899Z,1000.43
2017-05-18T06:01:41.415Z,1000.4
2017-05-18T06:02:21.939Z,1000.43
2017-05-18T06:03:02.472Z,1000.42
2017-05-18T06:03:43.003Z,1000.45
2017-05-18T06:04:23.528Z,1000.44
2017-05-18T06:06:25.789Z,1000.43
2017-05-18T06:07:06.305Z,1000.47
2017-05-18T06:07:46.810Z,1000.49
2017-05-18T06:08:27.332Z,1000.47
2017-05-18T06:09:07.857Z,1000.49
2017-05-18T06:09:48.383Z,1000.51
2017-05-18T06:10:28.914Z,1000.49
2017-05-18T06:11:09.435Z,1000.51
2017-05-18T06:11:50.002Z,1000.48
2017-05-18T06:12:30.521Z,1000.52
2017-05-18T06:13:11.032Z,1000.51
2017-05-18T06:13:51.572Z,1000.5
2017-05-18T06:14:32.114Z,1000.48
2017-05-18T06:15:12.660Z,1000.54
2017-05-18T06:15:53.159Z,1000.49
2017-05-18T06:16:33.685Z,1000.5
2017-05-18T06:17:14.202Z,1000.49
2017-05-18T06:17:54.722Z,1000.44
2017-05-18T06:18:35.239Z,1000.5
2017-05-18T06:19:15.757Z,1000.49
2017-05-18T06:19:56.289Z,1000.5
2017-05-18T06:20:36.803Z,1000.48
2017-05-18T06:21:17.432Z,1000.5
2017-05-18T06:21:57.896Z,1000.49
2017-05-18T06:22:38.410Z,1000.51
2017-05-18T06:23:18.923Z,1000.55
2017-05-18T06:23:59.443Z,1000.51
2017-05-18T06:24:39.997Z,1000.56
2017-05-18T06:25:21.465Z,1000.57
2017-05-18T06:26:01.980Z,1000.58
2017-05-18T06:28:15.259Z,1000.62
2017-05-18T06:28:55.821Z,1000.65
2017-05-18T06:29:36.301Z,1000.66
2017-05-18T06:30:16.818Z,1000.67
2017-05-18T06:30:57.347Z,1000.68
2017-05-18T06:31:37.870Z,1000.65
2017-05-18T06:32:18.374Z,1000.7
2017-05-18T06:32:58.898Z,1000.73
2017-05-18T06:33:39.424Z,1000.73
2017-05-18T06:34:19.916Z,1000.79
2017-05-18T06:35:00.444Z,1000.77
2017-05-18T06:35:40.972Z,1000.78
2017-05-18T06:36:21.496Z,1000.78
2017-05-18T06:37:01.999Z,1000.72
2017-05-18T06:37:42.516Z,1000.78
2017-05-18T06:38:23.149Z,1000.73
2017-05-18T06:39:03.643Z,1000.77
2017-05-18T06:39:44.133Z,1000.73
2017-05-18T06:40:24.651Z,1000.75
2017-05-18T06:41:05.149Z,1000.77
2017-05-18T06:41:45.629Z,1000.77
2017-05-18T06:42:26.107Z,1000.78
2017-05-18T06:43:06.626Z,1000.8
2017-05-18T06:43:47.136Z,1000.74
2017-05-18T06:44:27.664Z,1000.8
2017-05-18T06:45:08.186Z,1000.8
2017-05-18T06:45:48.703Z,1000.82
2017-05-18T06:48:07.175Z,1000.81
2017-05-18T06:48:47.637Z,1000.8
2017-05-18T06:49:28.148Z,1000.81
2017-05-18T06:50:08.651Z,1000.87
2017-05-18T06:50:49.161Z,1000.84
2017-05-18T06:51:29.677Z,1000.83
2017-05-18T06:52:10.192Z,1000.83
2017-05-18T06:52:50.834Z,1000.83
2017-05-18T06:53:31.401Z,1000.83
2017-05-18T06:54:11.925Z,1000.82
2017-05-18T06:54:52.448Z,1000.84
2017-05-18T06:55:32.963Z,1000.85
2017-05-18T06:56:13.489Z,1000.83
2017-05-18T06:56:54.013Z,1000.84
2017-05-18T06:57:34.565Z,1000.82
2017-05-18T06:58:15.085Z,1000.84
2017-05-18T06:58:55.602Z,1000.83
2017-05-18T06:59:36.119Z,1000.85
2017-05-18T07:00:16.656Z,1000.89
2017-05-18T07:00:57.171Z,1000.85
2017-05-18T07:01:37.695Z,1000.84
2017-05-18T07:02:18.230Z,1000.83
2017-05-18T07:02:58.746Z,1000.86
2017-05-18T07:03:39.266Z,1000.94
2017-05-18T07:04:19.785Z,1000.92
2017-05-18T07:05:00.360Z,1000.92
2017-05-18T07:05:40.875Z,1000.86
2017-05-18T07:06:21.415Z,1000.9
2017-05-18T07:07:01.953Z,1000.89
2017-05-18T07:07:42.449Z,1000.93
2017-05-18T07:08:22.984Z,1000.92
2017-05-18T07:09:03.547Z,1000.94
2017-05-18T07:09:43.998Z,1000.96
2017-05-18T07:10:24.544Z,1000.98
2017-05-18T07:11:04.984Z,1001.01
2017-05-18T07:11:45.480Z,1000.96
2017-05-18T07:12:25.981Z,1000.97
2017-05-18T07:13:06.503Z,1000.92
2017-05-18T07:13:47.025Z,1000.96
2017-05-18T07:14:27.488Z,1000.98
2017-05-18T07:15:08.031Z,1001
2017-05-18T07:15:48.506Z,1001
2017-05-18T07:16:28.969Z,1000.98
2017-05-18T07:17:09.448Z,1000.97
2017-05-18T07:17:49.976Z,1001.01
2017-05-18T07:18:30.505Z,1001
2017-05-18T07:19:10.959Z,1001
2017-05-18T07:19:51.447Z,1001.02
2017-05-18T07:20:31.965Z,1000.97
2017-05-18T07:21:12.435Z,1000.95
2017-05-18T07:21:52.927Z,1000.97
2017-05-18T07:22:33.430Z,1000.98
2017-05-18T07:23:13.910Z,1000.97
2017-05-18T07:23:54.435Z,1000.93
2017-05-18T07:24:34.945Z,1000.92
2017-05-18T07:25:15.377Z,1000.89
2017-05-18T07:25:56.038Z,1000.89
2017-05-18T07:26:36.431Z,1000.98
2017-05-18T07:27:16.883Z,1001.01
2017-05-18T07:27:57.417Z,1001.01
2017-05-18T07:28:37.938Z,1001.02
2017-05-18T07:29:18.491Z,1001.1
2017-05-18T07:29:58.928Z,1001.13
2017-05-18T07:30:39.404Z,1001.15
2017-05-18T07:31:19.895Z,1001.15
2017-05-18T07:32:00.411Z,1001.16
2017-05-18T07:32:40.876Z,1001.14
2017-05-18T07:33:21.420Z,1001.14
2017-05-18T07:34:01.901Z,1001.11
2017-05-18T07:34:42.430Z,1001.17
2017-05-18T07:35:22.995Z,1001.13
2017-05-18T07:36:03.474Z,1001.14
2017-05-18T07:36:43.949Z,1001.11
2017-05-18T07:37:24.481Z,1001.15
2017-05-18T07:38:04.975Z,1001.13
2017-05-18T07:38:45.495Z,1001.16
2017-05-18T07:39:26.023Z,1001.14
2017-05-18T07:40:06.543Z,1001.1
2017-05-18T07:40:47.064Z,1001.14
2017-05-18T07:41:27.589Z,1001.19
2017-05-18T07:42:08.118Z,1001.17
2017-05-18T07:42:48.660Z,1001.2
2017-05-18T07:43:29.185Z,1001.11
2017-05-18T07:44:09.706Z,1001.18
2017-05-18T07:44:50.224Z,1001.19
2017-05-18T07:45:30.760Z,1001.2
2017-05-18T07:46:11.300Z,1001.22
2017-05-18T07:46:51.848Z,1001.2
2017-05-18T07:47:32.340Z,1001.21
2017-05-18T07:48:12.863Z,1001.21
2017-05-18T07:48:53.380Z,1001.19
2017-05-18T07:49:33.905Z,1001.23
2017-05-18T07:50:14.422Z,1001.22
2017-05-18T07:50:54.943Z,1001.22
2017-05-18T07:51:35.447Z,1001.27
2017-05-18T07:52:15.980Z,1001.22
2017-05-18T07:52:56.507Z,1001.2
2017-05-18T07:53:37.031Z,1001.21
2017-05-18T07:54:17.549Z,1001.3
2017-05-18T07:54:58.083Z,1001.29
2017-05-18T07:55:38.590Z,1001.28
2017-05-18T07:56:19.112Z,1001.28
2017-05-18T07:56:59.636Z,1001.31
2017-05-18T07:57:40.153Z,1001.29
2017-05-18T07:58:20.678Z,1001.31
2017-05-18T07:59:01.207Z,1001.34
2017-05-18T07:59:41.734Z,1001.34
2017-05-18T08:00:22.309Z,1001.33
2017-05-18T08:01:02.801Z,1001.33
2017-05-18T08:01:43.362Z,1001.32
2017-05-18T08:02:23.898Z,1001.34
2017-05-18T08:03:04.419Z,1001.3
2017-05-18T08:03:44.956Z,1001.31
2017-05-18T08:04:25.472Z,1001.33
2017-05-18T08:05:05.988Z,1001.35
2017-05-18T08:05:46.502Z,1001.32
2017-05-18T08:06:27.018Z,1001.35
2017-05-18T08:07:07.591Z,1001.38
2017-05-18T08:07:48.120Z,1001.35
2017-05-18T08:08:28.646Z,1001.35
2017-05-18T08:09:09.153Z,1001.38
2017-05-18T08:09:49.681Z,1001.38
2017-05-18T08:10:30.204Z,1001.37
2017-05-18T08:11:10.724Z,1001.4
2017-05-18T08:11:51.252Z,1001.4
2017-05-18T08:12:31.759Z,1001.41
2017-05-18T08:13:12.266Z,1001.37
2017-05-18T08:13:52.799Z,1001.38
2017-05-18T08:14:33.303Z,1001.39
2017-05-18T08:15:13.822Z,1001.41
2017-05-18T08:15:54.344Z,1001.4
2017-05-18T08:16:34.859Z,1001.41
2017-05-18T08:17:15.386Z,1001.41
2017-05-18T08:17:55.888Z,1001.41
2017-05-18T08:18:36.410Z,1001.4
2017-05-18T08:19:16.941Z,1001.41
2017-05-18T08:19:57.462Z,1001.42
2017-05-18T08:20:37.982Z,1001.4
2017-05-18T08:21:18.502Z,1001.4
2017-05-18T08:21:59.005Z,1001.44
2017-05-18T08:22:39.542Z,1001.43
2017-05-18T08:23:20.067Z,1001.4
2017-05-18T08:24:00.582Z,1001.42
2017-05-18T08:24:41.126Z,1001.43
2017-05-18T08:25:21.637Z,1001.47
2017-05-18T08:26:02.152Z,1001.46
2017-05-18T08:26:42.676Z,1001.51